sensor_id;sensor_type;location;lat;lon;timestamp;temperature;humidity
39585;DHT22;25278;53.674;10.014;2022-08-02T03:54:56;10.70;99.90
39585;DHT22;25278;53.674;10.014;2022-08-02T03:57:22;10.30;99.90
39585;DHT22;25278;53.674;10.014;2022-08-02T03:59:47;10.20;99.90
39585;DHT22;25278;53.674;10.014;2022-08-02T04:02:13;10.10;99.90
39585;DHT22;25278;53.674;10.014;2022-08-02T04:04:38;10.10;99.90
39585;DHT22;25278;53.674;10.014;2022-08-02T04:07:04;10.10;99.90
39585;DHT22;25278;53.674;10.014;2022-08-02T04:09:30;10.10;99.90
39585;DHT22;25278;53.674;10.014;2022-08-02T04:11:55;10.10;99.90
39585;DHT22;25278;53.674;10.014;2022-08-02T04:14:21;10.20;99.90
39585;DHT22;25278;53.674;10.014;2022-08-02T04:58:07;10.30;99.90
39585;DHT22;25278;53.674;10.014;2022-08-02T05:00:32;10.60;99.90
39585;DHT22;25278;53.674;10.014;2022-08-02T05:02:58;10.50;99.90
39585;DHT22;25278;53.674;10.014;2022-08-02T05:05:24;10.50;99.90
39585;DHT22;25278;53.674;10.014;2022-08-02T05:07:50;10.50;99.90
39585;DHT22;25278;53.674;10.014;2022-08-02T05:10:15;10.60;99.90
39585;DHT22;25278;53.674;10.014;2022-08-02T05:12:41;10.70;99.90
39585;DHT22;25278;53.674;10.014;2022-08-02T05:15:07;10.90;99.90
39585;DHT22;25278;53.674;10.014;2022-08-02T05:17:32;10.90;99.90
39585;DHT22;25278;53.674;10.014;2022-08-02T05:19:58;11.10;99.90
39585;DHT22;25278;53.674;10.014;2022-08-02T05:22:23;11.20;99.90
39585;DHT22;25278;53.674;10.014;2022-08-02T05:24:49;11.40;99.90
39585;DHT22;25278;53.674;10.014;2022-08-02T05:27:14;11.50;99.90
39585;DHT22;25278;53.674;10.014;2022-08-02T05:29:39;11.60;99.90
39585;DHT22;25278;53.674;10.014;2022-08-02T05:32:05;11.90;99.90
39585;DHT22;25278;53.674;10.014;2022-08-02T05:34:30;12.00;99.90
39585;DHT22;25278;53.674;10.014;2022-08-02T05:36:56;12.10;99.90
39585;DHT22;25278;53.674;10.014;2022-08-02T05:39:21;12.30;99.90
39585;DHT22;25278;53.674;10.014;2022-08-02T05:41:47;12.50;99.90
39585;DHT22;25278;53.674;10.014;2022-08-02T05:44:12;12.70;99.90
39585;DHT22;25278;53.674;10.014;2022-08-02T05:49:04;12.80;99.90
39585;DHT22;25278;53.674;10.014;2022-08-02T05:51:40;13.10;99.90
39585;DHT22;25278;53.674;10.014;2022-08-02T05:56:37;13.50;99.90
39585;DHT22;25278;53.674;10.014;2022-08-02T06:01:32;13.80;99.90
39585;DHT22;25278;53.674;10.014;2022-08-02T06:03:58;13.90;99.90
39585;DHT22;25278;53.674;10.014;2022-08-02T06:06:24;14.00;99.90
39585;DHT22;25278;53.674;10.014;2022-08-02T06:08:54;14.10;99.90
39585;DHT22;25278;53.674;10.014;2022-08-02T06:13:45;14.10;99.90
39585;DHT22;25278;53.674;10.014;2022-08-02T06:16:11;14.40;99.90
39585;DHT22;25278;53.674;10.014;2022-08-02T06:21:03;14.40;99.90
39585;DHT22;25278;53.674;10.014;2022-08-02T06:23:29;14.80;99.90
39585;DHT22;25278;53.674;10.014;2022-08-02T10:10:22;14.90;99.90
39585;DHT22;25278;53.674;10.014;2022-08-02T10:17:40;21.80;99.90
39585;DHT22;25278;53.674;10.014;2022-08-02T10:20:05;22.60;99.90
39585;DHT22;25278;53.674;10.014;2022-08-02T10:29:49;22.80;99.90
39585;DHT22;25278;53.674;10.014;2022-08-02T10:32:18;22.90;99.90
39585;DHT22;25278;53.674;10.014;2022-08-02T10:34:50;23.00;99.90
39585;DHT22;25278;53.674;10.014;2022-08-02T10:37:17;23.00;99.90
39585;DHT22;25278;53.674;10.014;2022-08-02T10:39:43;23.10;99.90
39585;DHT22;25278;53.674;10.014;2022-08-02T10:42:09;23.20;99.90
39585;DHT22;25278;53.674;10.014;2022-08-02T10:44:35;23.10;99.90
39585;DHT22;25278;53.674;10.014;2022-08-02T10:52:13;22.90;99.90
39585;DHT22;25278;53.674;10.014;2022-08-02T10:54:39;22.80;99.90
39585;DHT22;25278;53.674;10.014;2022-08-02T10:59:39;23.00;99.90
39585;DHT22;25278;53.674;10.014;2022-08-02T11:02:05;23.30;99.90
39585;DHT22;25278;53.674;10.014;2022-08-02T11:04:32;23.40;99.90
39585;DHT22;25278;53.674;10.014;2022-08-02T11:07:18;23.30;99.90
39585;DHT22;25278;53.674;10.014;2022-08-02T11:09:44;23.50;99.90
39585;DHT22;25278;53.674;10.014;2022-08-02T11:12:12;23.70;99.90
39585;DHT22;25278;53.674;10.014;2022-08-02T11:14:41;24.00;99.90
39585;DHT22;25278;53.674;10.014;2022-08-02T11:17:08;24.40;99.90
39585;DHT22;25278;53.674;10.014;2022-08-02T11:19:35;24.30;99.90
39585;DHT22;25278;53.674;10.014;2022-08-02T11:27:19;24.50;99.90
39585;DHT22;25278;53.674;10.014;2022-08-02T11:29:45;24.90;99.90
39585;DHT22;25278;53.674;10.014;2022-08-02T11:32:14;24.80;99.90
39585;DHT22;25278;53.674;10.014;2022-08-02T11:34:41;25.00;99.90
39585;DHT22;25278;53.674;10.014;2022-08-02T11:37:07;25.60;99.90
39585;DHT22;25278;53.674;10.014;2022-08-02T11:39:32;25.70;99.90
39585;DHT22;25278;53.674;10.014;2022-08-02T11:41:58;25.60;99.90
39585;DHT22;25278;53.674;10.014;2022-08-02T11:44:25;25.50;99.90
39585;DHT22;25278;53.674;10.014;2022-08-02T11:49:19;25.20;99.90
39585;DHT22;25278;53.674;10.014;2022-08-02T11:54:22;25.70;99.30
39585;DHT22;25278;53.674;10.014;2022-08-02T11:56:48;25.50;99.60
39585;DHT22;25278;53.674;10.014;2022-08-02T11:59:13;25.40;98.70
39585;DHT22;25278;53.674;10.014;2022-08-02T12:01:39;25.50;99.20
39585;DHT22;25278;53.674;10.014;2022-08-02T12:04:05;25.30;99.20
39585;DHT22;25278;53.674;10.014;2022-08-02T12:06:31;25.50;99.80
39585;DHT22;25278;53.674;10.014;2022-08-02T12:08:57;25.60;99.10
39585;DHT22;25278;53.674;10.014;2022-08-02T12:11:23;26.10;98.80
39585;DHT22;25278;53.674;10.014;2022-08-02T12:13:48;26.10;97.90
39585;DHT22;25278;53.674;10.014;2022-08-02T12:16:14;26.10;98.20
39585;DHT22;25278;53.674;10.014;2022-08-02T12:18:58;26.10;97.50
39585;DHT22;25278;53.674;10.014;2022-08-02T12:21:42;26.00;97.70
39585;DHT22;25278;53.674;10.014;2022-08-02T12:24:07;26.70;97.60
39585;DHT22;25278;53.674;10.014;2022-08-02T12:26:43;27.00;96.80
39585;DHT22;25278;53.674;10.014;2022-08-02T12:29:08;26.60;96.90
39585;DHT22;25278;53.674;10.014;2022-08-02T12:31:52;26.30;96.80
39585;DHT22;25278;53.674;10.014;2022-08-02T12:34:17;26.50;95.60
39585;DHT22;25278;53.674;10.014;2022-08-02T12:37:01;26.40;95.90
39585;DHT22;25278;53.674;10.014;2022-08-02T12:39:38;26.40;95.80
39585;DHT22;25278;53.674;10.014;2022-08-02T12:42:05;26.40;95.60
39585;DHT22;25278;53.674;10.014;2022-08-02T12:44:31;26.10;95.70
39585;DHT22;25278;53.674;10.014;2022-08-02T12:49:22;26.30;95.80
39585;DHT22;25278;53.674;10.014;2022-08-02T12:51:48;27.60;95.30
39585;DHT22;25278;53.674;10.014;2022-08-02T12:54:15;27.80;94.90
39585;DHT22;25278;53.674;10.014;2022-08-02T12:56:40;27.00;95.20
39585;DHT22;25278;53.674;10.014;2022-08-02T12:59:06;26.70;95.40
39585;DHT22;25278;53.674;10.014;2022-08-02T13:01:32;27.40;94.80
39585;DHT22;25278;53.674;10.014;2022-08-02T13:03:57;27.60;94.00
39585;DHT22;25278;53.674;10.014;2022-08-02T13:06:23;27.40;94.60
39585;DHT22;25278;53.674;10.014;2022-08-02T13:08:49;27.50;94.80
39585;DHT22;25278;53.674;10.014;2022-08-02T13:11:14;27.50;95.30
39585;DHT22;25278;53.674;10.014;2022-08-02T13:13:40;27.70;93.60
39585;DHT22;25278;53.674;10.014;2022-08-02T13:16:05;27.40;94.30
39585;DHT22;25278;53.674;10.014;2022-08-02T13:18:32;27.60;93.80
39585;DHT22;25278;53.674;10.014;2022-08-02T13:20:58;28.00;93.50
39585;DHT22;25278;53.674;10.014;2022-08-02T13:23:24;28.00;93.40
39585;DHT22;25278;53.674;10.014;2022-08-02T13:25:50;27.80;93.20
39585;DHT22;25278;53.674;10.014;2022-08-02T13:28:16;27.90;93.40
39585;DHT22;25278;53.674;10.014;2022-08-02T13:30:41;28.20;92.40
39585;DHT22;25278;53.674;10.014;2022-08-02T13:33:07;28.50;92.50
39585;DHT22;25278;53.674;10.014;2022-08-02T13:35:32;29.10;92.50
39585;DHT22;25278;53.674;10.014;2022-08-02T13:37:58;30.00;92.40
39585;DHT22;25278;53.674;10.014;2022-08-02T13:40:23;30.40;90.50
39585;DHT22;25278;53.674;10.014;2022-08-02T13:42:49;30.00;88.70
39585;DHT22;25278;53.674;10.014;2022-08-02T13:45:14;29.50;90.50
39585;DHT22;25278;53.674;10.014;2022-08-02T13:47:41;30.30;90.00
39585;DHT22;25278;53.674;10.014;2022-08-02T14:02:16;30.40;89.10
39585;DHT22;25278;53.674;10.014;2022-08-02T14:04:41;31.20;80.90
39585;DHT22;25278;53.674;10.014;2022-08-02T14:07:07;30.40;81.30
39585;DHT22;25278;53.674;10.014;2022-08-02T14:09:33;29.80;82.80
39585;DHT22;25278;53.674;10.014;2022-08-02T14:12:03;30.00;82.90
39585;DHT22;25278;53.674;10.014;2022-08-02T14:14:29;30.40;84.00
39585;DHT22;25278;53.674;10.014;2022-08-02T14:16:54;30.80;82.70
39585;DHT22;25278;53.674;10.014;2022-08-02T14:19:20;31.50;82.20
39585;DHT22;25278;53.674;10.014;2022-08-02T14:21:46;31.10;82.40
39585;DHT22;25278;53.674;10.014;2022-08-02T14:24:12;31.70;83.10
39585;DHT22;25278;53.674;10.014;2022-08-02T14:26:37;31.90;82.00
39585;DHT22;25278;53.674;10.014;2022-08-02T14:29:03;31.80;82.10
39585;DHT22;25278;53.674;10.014;2022-08-02T14:31:28;31.70;82.60
39585;DHT22;25278;53.674;10.014;2022-08-02T14:33:54;31.90;82.60
39585;DHT22;25278;53.674;10.014;2022-08-02T14:36:19;31.80;83.50
39585;DHT22;25278;53.674;10.014;2022-08-02T14:38:45;32.00;83.10
39585;DHT22;25278;53.674;10.014;2022-08-02T14:41:10;31.40;82.10
39585;DHT22;25278;53.674;10.014;2022-08-02T14:43:35;30.10;83.90
39585;DHT22;25278;53.674;10.014;2022-08-02T14:46:19;29.20;86.00
39585;DHT22;25278;53.674;10.014;2022-08-02T14:48:45;29.20;88.40
39585;DHT22;25278;53.674;10.014;2022-08-02T14:51:10;29.30;88.60
39585;DHT22;25278;53.674;10.014;2022-08-02T14:53:38;29.20;87.90
39585;DHT22;25278;53.674;10.014;2022-08-02T14:56:03;28.50;89.40
39585;DHT22;25278;53.674;10.014;2022-08-02T14:58:29;28.60;90.30
39585;DHT22;25278;53.674;10.014;2022-08-02T15:00:54;28.80;90.50
39585;DHT22;25278;53.674;10.014;2022-08-02T15:03:20;29.20;90.80
39585;DHT22;25278;53.674;10.014;2022-08-02T15:05:45;30.40;89.90
39585;DHT22;25278;53.674;10.014;2022-08-02T15:08:11;29.50;89.00
39585;DHT22;25278;53.674;10.014;2022-08-02T15:10:36;29.50;90.20
39585;DHT22;25278;53.674;10.014;2022-08-02T15:13:02;29.30;90.20
39585;DHT22;25278;53.674;10.014;2022-08-02T15:15:27;30.00;90.70
39585;DHT22;25278;53.674;10.014;2022-08-02T15:17:53;30.70;89.40
39585;DHT22;25278;53.674;10.014;2022-08-02T15:20:18;30.80;89.70
39585;DHT22;25278;53.674;10.014;2022-08-02T15:22:43;30.80;88.60
39585;DHT22;25278;53.674;10.014;2022-08-02T15:25:09;32.00;89.60
39585;DHT22;25278;53.674;10.014;2022-08-02T15:27:34;32.90;85.50
39585;DHT22;25278;53.674;10.014;2022-08-02T15:30:00;33.10;86.20
39585;DHT22;25278;53.674;10.014;2022-08-02T15:32:25;33.30;84.80
39585;DHT22;25278;53.674;10.014;2022-08-02T15:34:51;33.40;84.70
39585;DHT22;25278;53.674;10.014;2022-08-02T15:37:16;33.60;85.30
39585;DHT22;25278;53.674;10.014;2022-08-02T15:39:42;34.10;82.70
39585;DHT22;25278;53.674;10.014;2022-08-02T15:42:07;34.40;83.80
39585;DHT22;25278;53.674;10.014;2022-08-02T15:44:33;33.80;82.90
39585;DHT22;25278;53.674;10.014;2022-08-02T15:46:58;33.20;83.20
39585;DHT22;25278;53.674;10.014;2022-08-02T15:49:24;31.90;82.90
39585;DHT22;25278;53.674;10.014;2022-08-02T15:51:50;30.10;85.40
39585;DHT22;25278;53.674;10.014;2022-08-02T15:54:16;28.80;88.50
39585;DHT22;25278;53.674;10.014;2022-08-02T15:56:41;28.10;90.40
39585;DHT22;25278;53.674;10.014;2022-08-02T15:59:07;27.70;91.00
39585;DHT22;25278;53.674;10.014;2022-08-02T16:01:32;27.10;91.80
39585;DHT22;25278;53.674;10.014;2022-08-02T16:03:58;26.80;92.80
39585;DHT22;25278;53.674;10.014;2022-08-02T16:06:24;26.80;93.30
39585;DHT22;25278;53.674;10.014;2022-08-02T16:08:50;26.70;93.70
39585;DHT22;25278;53.674;10.014;2022-08-02T16:11:15;26.40;94.10
39585;DHT22;25278;53.674;10.014;2022-08-02T16:13:41;26.50;94.80
39585;DHT22;25278;53.674;10.014;2022-08-02T16:16:22;26.40;95.10
39585;DHT22;25278;53.674;10.014;2022-08-02T16:18:48;26.00;96.80
39585;DHT22;25278;53.674;10.014;2022-08-02T16:21:13;25.70;98.20
39585;DHT22;25278;53.674;10.014;2022-08-02T16:23:39;25.70;98.90
39585;DHT22;25278;53.674;10.014;2022-08-02T16:26:04;25.60;99.20
39585;DHT22;25278;53.674;10.014;2022-08-02T16:28:30;25.50;99.80
39585;DHT22;25278;53.674;10.014;2022-08-02T16:30:55;25.40;99.70
39585;DHT22;25278;53.674;10.014;2022-08-02T16:33:21;25.30;99.90
39585;DHT22;25278;53.674;10.014;2022-08-02T16:35:46;25.40;99.90
39585;DHT22;25278;53.674;10.014;2022-08-02T16:38:12;25.50;99.90
39585;DHT22;25278;53.674;10.014;2022-08-02T16:40:37;25.40;99.90
39585;DHT22;25278;53.674;10.014;2022-08-02T16:43:03;25.40;99.90
39585;DHT22;25278;53.674;10.014;2022-08-02T16:45:28;25.40;99.90
39585;DHT22;25278;53.674;10.014;2022-08-02T16:47:54;25.30;99.90
39585;DHT22;25278;53.674;10.014;2022-08-02T16:50:19;25.30;99.90
39585;DHT22;25278;53.674;10.014;2022-08-02T16:52:45;25.20;99.90
39585;DHT22;25278;53.674;10.014;2022-08-02T16:55:11;25.30;99.90
39585;DHT22;25278;53.674;10.014;2022-08-02T16:57:36;25.30;99.90
39585;DHT22;25278;53.674;10.014;2022-08-02T17:00:08;25.30;99.90
39585;DHT22;25278;53.674;10.014;2022-08-02T17:02:34;25.30;99.90
39585;DHT22;25278;53.674;10.014;2022-08-02T17:05:00;25.30;99.90
39585;DHT22;25278;53.674;10.014;2022-08-02T17:07:25;25.40;99.90
39585;DHT22;25278;53.674;10.014;2022-08-02T17:09:51;25.30;99.90
39585;DHT22;25278;53.674;10.014;2022-08-02T17:12:16;25.20;99.90
39585;DHT22;25278;53.674;10.014;2022-08-02T17:14:42;25.10;99.90
39585;DHT22;25278;53.674;10.014;2022-08-02T17:17:10;25.20;99.90
39585;DHT22;25278;53.674;10.014;2022-08-02T17:19:35;25.30;99.90
39585;DHT22;25278;53.674;10.014;2022-08-02T17:22:01;25.30;99.90
39585;DHT22;25278;53.674;10.014;2022-08-02T17:24:27;25.30;99.90
39585;DHT22;25278;53.674;10.014;2022-08-02T17:26:52;25.40;99.90
39585;DHT22;25278;53.674;10.014;2022-08-02T17:29:17;25.50;99.90
39585;DHT22;25278;53.674;10.014;2022-08-02T17:31:44;25.60;99.90
39585;DHT22;25278;53.674;10.014;2022-08-02T17:34:10;25.80;99.90
39585;DHT22;25278;53.674;10.014;2022-08-02T17:36:35;26.00;99.90
39585;DHT22;25278;53.674;10.014;2022-08-02T17:39:01;26.20;99.90
39585;DHT22;25278;53.674;10.014;2022-08-02T17:41:27;26.20;99.90
39585;DHT22;25278;53.674;10.014;2022-08-02T17:43:52;26.30;99.90
39585;DHT22;25278;53.674;10.014;2022-08-02T17:46:17;26.30;99.90
39585;DHT22;25278;53.674;10.014;2022-08-02T17:48:43;26.40;99.90
39585;DHT22;25278;53.674;10.014;2022-08-02T17:51:27;26.40;99.90
39585;DHT22;25278;53.674;10.014;2022-08-02T17:53:52;26.20;99.90
39585;DHT22;25278;53.674;10.014;2022-08-02T17:56:18;26.20;99.90
39585;DHT22;25278;53.674;10.014;2022-08-02T17:58:43;26.00;99.90
39585;DHT22;25278;53.674;10.014;2022-08-02T18:01:09;26.00;99.90
39585;DHT22;25278;53.674;10.014;2022-08-02T18:03:35;26.00;99.90
39585;DHT22;25278;53.674;10.014;2022-08-02T18:06:00;25.80;99.90
39585;DHT22;25278;53.674;10.014;2022-08-02T18:08:25;25.70;99.90
39585;DHT22;25278;53.674;10.014;2022-08-02T18:10:52;25.50;99.90
39585;DHT22;25278;53.674;10.014;2022-08-02T18:13:18;25.50;99.90
39585;DHT22;25278;53.674;10.014;2022-08-02T18:15:43;25.30;99.90
39585;DHT22;25278;53.674;10.014;2022-08-02T18:18:09;25.20;99.90
39585;DHT22;25278;53.674;10.014;2022-08-02T18:20:34;25.10;99.90
39585;DHT22;25278;53.674;10.014;2022-08-02T18:23:00;25.00;99.90
39585;DHT22;25278;53.674;10.014;2022-08-02T18:25:26;25.10;99.90
39585;DHT22;25278;53.674;10.014;2022-08-02T18:27:51;25.10;99.90
39585;DHT22;25278;53.674;10.014;2022-08-02T18:30:17;25.10;99.90
39585;DHT22;25278;53.674;10.014;2022-08-02T18:32:42;25.00;99.90
39585;DHT22;25278;53.674;10.014;2022-08-02T18:35:07;24.90;99.90
39585;DHT22;25278;53.674;10.014;2022-08-02T18:37:33;24.70;99.90
39585;DHT22;25278;53.674;10.014;2022-08-02T18:39:58;24.60;99.90
39585;DHT22;25278;53.674;10.014;2022-08-02T18:42:24;24.60;99.90
39585;DHT22;25278;53.674;10.014;2022-08-02T18:44:49;24.60;99.90
39585;DHT22;25278;53.674;10.014;2022-08-02T18:47:15;24.50;99.90
39585;DHT22;25278;53.674;10.014;2022-08-02T18:49:40;24.50;99.90
39585;DHT22;25278;53.674;10.014;2022-08-02T18:52:06;24.50;99.90
39585;DHT22;25278;53.674;10.014;2022-08-02T18:54:31;24.40;99.90
39585;DHT22;25278;53.674;10.014;2022-08-02T18:56:57;24.40;99.90
39585;DHT22;25278;53.674;10.014;2022-08-02T18:59:23;24.30;99.90
39585;DHT22;25278;53.674;10.014;2022-08-02T19:01:49;24.10;99.90
39585;DHT22;25278;53.674;10.014;2022-08-02T19:04:15;24.10;99.90
39585;DHT22;25278;53.674;10.014;2022-08-02T19:06:40;24.00;99.90
39585;DHT22;25278;53.674;10.014;2022-08-02T19:09:05;24.00;99.90
39585;DHT22;25278;53.674;10.014;2022-08-02T19:11:31;24.00;99.90
39585;DHT22;25278;53.674;10.014;2022-08-02T19:13:57;23.90;99.90
39585;DHT22;25278;53.674;10.014;2022-08-02T19:16:22;23.90;99.90
39585;DHT22;25278;53.674;10.014;2022-08-02T19:18:48;23.80;99.90
39585;DHT22;25278;53.674;10.014;2022-08-02T19:21:14;23.70;99.90
39585;DHT22;25278;53.674;10.014;2022-08-02T19:23:40;23.70;99.90
39585;DHT22;25278;53.674;10.014;2022-08-02T19:26:05;23.70;99.90
39585;DHT22;25278;53.674;10.014;2022-08-02T19:28:32;23.60;99.90
39585;DHT22;25278;53.674;10.014;2022-08-02T19:30:58;23.60;99.90
39585;DHT22;25278;53.674;10.014;2022-08-02T19:33:23;23.50;99.90
39585;DHT22;25278;53.674;10.014;2022-08-02T19:35:49;23.50;99.90
39585;DHT22;25278;53.674;10.014;2022-08-02T19:38:14;23.40;99.90
39585;DHT22;25278;53.674;10.014;2022-08-02T19:40:40;23.40;99.90
39585;DHT22;25278;53.674;10.014;2022-08-02T19:43:09;23.40;99.90
39585;DHT22;25278;53.674;10.014;2022-08-02T19:45:35;23.30;99.90
39585;DHT22;25278;53.674;10.014;2022-08-02T19:48:09;23.30;99.90
39585;DHT22;25278;53.674;10.014;2022-08-02T19:50:39;23.30;99.90
39585;DHT22;25278;53.674;10.014;2022-08-02T19:53:05;23.20;99.90
39585;DHT22;25278;53.674;10.014;2022-08-02T19:55:31;23.20;99.90
39585;DHT22;25278;53.674;10.014;2022-08-02T19:57:57;23.10;99.90
39585;DHT22;25278;53.674;10.014;2022-08-02T20:00:22;23.10;99.90
39585;DHT22;25278;53.674;10.014;2022-08-02T20:02:48;23.00;99.90
39585;DHT22;25278;53.674;10.014;2022-08-02T20:05:13;23.00;99.90
39585;DHT22;25278;53.674;10.014;2022-08-02T20:07:39;23.00;99.90
39585;DHT22;25278;53.674;10.014;2022-08-02T20:10:09;23.00;99.90
39585;DHT22;25278;53.674;10.014;2022-08-02T20:12:35;22.80;99.90
39585;DHT22;25278;53.674;10.014;2022-08-02T20:15:00;22.80;99.90
39585;DHT22;25278;53.674;10.014;2022-08-02T20:17:26;22.80;99.90
39585;DHT22;25278;53.674;10.014;2022-08-02T20:19:53;22.80;99.90
39585;DHT22;25278;53.674;10.014;2022-08-02T20:22:18;22.80;99.90
39585;DHT22;25278;53.674;10.014;2022-08-02T20:24:44;22.70;99.90
39585;DHT22;25278;53.674;10.014;2022-08-02T20:27:09;22.70;99.90
39585;DHT22;25278;53.674;10.014;2022-08-02T20:29:35;22.70;99.90
39585;DHT22;25278;53.674;10.014;2022-08-02T20:32:01;22.60;99.90
39585;DHT22;25278;53.674;10.014;2022-08-02T20:34:26;22.60;99.90
39585;DHT22;25278;53.674;10.014;2022-08-02T20:36:52;22.60;99.90
39585;DHT22;25278;53.674;10.014;2022-08-02T20:39:18;22.70;99.90
39585;DHT22;25278;53.674;10.014;2022-08-02T20:41:44;22.60;99.90
39585;DHT22;25278;53.674;10.014;2022-08-02T20:44:10;22.70;99.90
39585;DHT22;25278;53.674;10.014;2022-08-02T20:46:35;22.60;99.90
39585;DHT22;25278;53.674;10.014;2022-08-02T20:49:01;22.50;99.90
39585;DHT22;25278;53.674;10.014;2022-08-02T20:51:26;22.50;99.90
39585;DHT22;25278;53.674;10.014;2022-08-02T20:53:52;22.50;99.90
39585;DHT22;25278;53.674;10.014;2022-08-02T20:56:17;22.50;99.90
39585;DHT22;25278;53.674;10.014;2022-08-02T20:58:43;22.40;99.90
39585;DHT22;25278;53.674;10.014;2022-08-02T21:01:09;22.40;99.90
39585;DHT22;25278;53.674;10.014;2022-08-02T21:03:34;22.40;99.90
39585;DHT22;25278;53.674;10.014;2022-08-02T21:06:00;22.30;99.90
39585;DHT22;25278;53.674;10.014;2022-08-02T21:08:25;22.30;99.90
39585;DHT22;25278;53.674;10.014;2022-08-02T21:10:51;22.20;99.90
39585;DHT22;25278;53.674;10.014;2022-08-02T21:13:17;22.20;99.90
39585;DHT22;25278;53.674;10.014;2022-08-02T21:15:45;22.20;99.90
39585;DHT22;25278;53.674;10.014;2022-08-02T21:18:10;22.10;99.90
39585;DHT22;25278;53.674;10.014;2022-08-02T21:20:36;22.10;99.90
39585;DHT22;25278;53.674;10.014;2022-08-02T21:23:02;22.10;99.90
39585;DHT22;25278;53.674;10.014;2022-08-02T21:25:28;22.00;99.90
39585;DHT22;25278;53.674;10.014;2022-08-02T21:27:55;22.00;99.90
39585;DHT22;25278;53.674;10.014;2022-08-02T21:30:21;21.90;99.90
39585;DHT22;25278;53.674;10.014;2022-08-02T21:32:47;21.90;99.90
39585;DHT22;25278;53.674;10.014;2022-08-02T21:35:15;21.80;99.90
39585;DHT22;25278;53.674;10.014;2022-08-02T21:37:42;21.80;99.90
39585;DHT22;25278;53.674;10.014;2022-08-02T21:40:07;21.80;99.90
39585;DHT22;25278;53.674;10.014;2022-08-02T21:42:33;21.70;99.90
39585;DHT22;25278;53.674;10.014;2022-08-02T21:44:59;21.70;99.90
39585;DHT22;25278;53.674;10.014;2022-08-02T21:47:24;21.80;99.90
39585;DHT22;25278;53.674;10.014;2022-08-02T21:49:53;21.80;99.90
39585;DHT22;25278;53.674;10.014;2022-08-02T21:52:20;21.80;99.90
39585;DHT22;25278;53.674;10.014;2022-08-02T21:54:45;21.80;99.90
39585;DHT22;25278;53.674;10.014;2022-08-02T21:57:11;21.80;99.90
39585;DHT22;25278;53.674;10.014;2022-08-02T21:59:37;21.70;99.90
39585;DHT22;25278;53.674;10.014;2022-08-02T22:02:02;21.60;99.90
39585;DHT22;25278;53.674;10.014;2022-08-02T22:04:27;21.70;99.90
39585;DHT22;25278;53.674;10.014;2022-08-02T22:06:53;21.80;99.90
39585;DHT22;25278;53.674;10.014;2022-08-02T22:09:19;21.70;99.90
39585;DHT22;25278;53.674;10.014;2022-08-02T22:11:45;21.70;99.90
39585;DHT22;25278;53.674;10.014;2022-08-02T22:14:10;21.60;99.90
39585;DHT22;25278;53.674;10.014;2022-08-02T22:16:36;21.50;99.90
39585;DHT22;25278;53.674;10.014;2022-08-02T22:19:02;21.50;99.90
39585;DHT22;25278;53.674;10.014;2022-08-02T22:21:27;21.50;99.90
39585;DHT22;25278;53.674;10.014;2022-08-02T22:23:53;21.50;99.90
39585;DHT22;25278;53.674;10.014;2022-08-02T22:26:18;21.50;99.90
39585;DHT22;25278;53.674;10.014;2022-08-02T22:28:43;21.50;99.90
39585;DHT22;25278;53.674;10.014;2022-08-02T22:33:38;21.50;99.90
39585;DHT22;25278;53.674;10.014;2022-08-02T22:36:22;21.60;99.90
39585;DHT22;25278;53.674;10.014;2022-08-02T22:38:48;21.60;99.90
39585;DHT22;25278;53.674;10.014;2022-08-02T22:41:14;21.50;99.90
39585;DHT22;25278;53.674;10.014;2022-08-02T22:43:40;21.50;99.90
39585;DHT22;25278;53.674;10.014;2022-08-02T22:46:06;21.40;99.90
39585;DHT22;25278;53.674;10.014;2022-08-02T22:48:31;21.30;99.90
39585;DHT22;25278;53.674;10.014;2022-08-02T22:50:57;21.30;99.90
39585;DHT22;25278;53.674;10.014;2022-08-02T22:53:22;21.30;99.90
39585;DHT22;25278;53.674;10.014;2022-08-02T22:55:48;21.20;99.90
39585;DHT22;25278;53.674;10.014;2022-08-02T22:58:14;21.10;99.90
39585;DHT22;25278;53.674;10.014;2022-08-02T23:00:39;21.10;99.90
39585;DHT22;25278;53.674;10.014;2022-08-02T23:03:05;21.00;99.90
39585;DHT22;25278;53.674;10.014;2022-08-02T23:05:30;21.00;99.90
39585;DHT22;25278;53.674;10.014;2022-08-02T23:07:56;20.90;99.90
39585;DHT22;25278;53.674;10.014;2022-08-02T23:10:21;20.90;99.90
39585;DHT22;25278;53.674;10.014;2022-08-02T23:12:47;20.90;99.90
39585;DHT22;25278;53.674;10.014;2022-08-02T23:15:12;20.90;99.90
39585;DHT22;25278;53.674;10.014;2022-08-02T23:17:38;20.80;99.90
39585;DHT22;25278;53.674;10.014;2022-08-02T23:20:22;20.80;99.90
39585;DHT22;25278;53.674;10.014;2022-08-02T23:22:48;20.80;99.90
39585;DHT22;25278;53.674;10.014;2022-08-02T23:25:13;20.70;99.90
39585;DHT22;25278;53.674;10.014;2022-08-02T23:27:39;20.70;99.90
